createdAt,value
2023-01-19T00:02:25.707Z,13.00
2023-01-19T00:04:52.078Z,14.82
2023-01-19T00:07:18.395Z,11.98
2023-01-19T00:09:44.844Z,11.57
2023-01-19T00:12:11.128Z,9.20
2023-01-19T00:14:37.503Z,12.75
2023-01-19T00:17:04.062Z,11.38
2023-01-19T00:19:30.417Z,10.10
2023-01-19T00:21:56.840Z,10.13
2023-01-19T00:24:23.284Z,11.77
2023-01-19T00:26:49.589Z,13.10
2023-01-19T00:29:15.947Z,11.98
2023-01-19T00:31:42.454Z,11.73
2023-01-19T00:34:08.766Z,12.93
2023-01-19T00:36:35.102Z,10.57
2023-01-19T00:39:01.519Z,13.48
2023-01-19T00:41:46.736Z,13.73
2023-01-19T00:44:13.291Z,15.32
2023-01-19T00:46:39.668Z,11.00
2023-01-19T00:49:05.982Z,15.65
2023-01-19T00:51:33.008Z,15.15
2023-01-19T00:54:04.733Z,14.63
2023-01-19T00:56:31.479Z,13.88
2023-01-19T00:58:57.902Z,16.95
2023-01-19T01:01:45.273Z,17.25
2023-01-19T01:04:12.247Z,21.30
2023-01-19T01:06:38.628Z,15.32
2023-01-19T01:09:11.763Z,14.48
2023-01-19T01:11:39.888Z,14.48
2023-01-19T01:14:06.748Z,16.15
2023-01-19T01:16:33.239Z,17.02
2023-01-19T01:18:59.729Z,16.02
2023-01-19T01:21:26.124Z,13.30
2023-01-19T01:23:52.413Z,16.70
2023-01-19T01:26:18.741Z,12.45
2023-01-19T01:28:45.052Z,13.85
2023-01-19T01:31:11.576Z,12.57
2023-01-19T01:33:41.204Z,17.70
2023-01-19T01:36:08.376Z,14.93
2023-01-19T01:38:34.736Z,11.55
2023-01-19T01:41:01.384Z,18.20
2023-01-19T01:43:46.627Z,12.82
2023-01-19T01:46:15.700Z,12.93
2023-01-19T01:48:44.371Z,17.15
2023-01-19T01:51:26.817Z,17.60
2023-01-19T01:54:07.016Z,13.40
2023-01-19T01:56:35.754Z,13.70
2023-01-19T01:59:04.423Z,13.52
2023-01-19T02:01:49.404Z,14.25
2023-01-19T02:04:15.812Z,13.52
2023-01-19T02:07:00.677Z,12.15
2023-01-19T02:09:47.644Z,14.98
2023-01-19T02:12:32.761Z,13.45
2023-01-19T02:14:59.110Z,15.25
2023-01-19T02:17:25.429Z,15.07
2023-01-19T02:19:51.910Z,13.80
2023-01-19T02:22:24.330Z,10.90
2023-01-19T02:24:50.629Z,15.48
2023-01-19T02:27:17.016Z,12.23
2023-01-19T02:29:43.397Z,14.02
2023-01-19T02:32:09.855Z,11.45
2023-01-19T02:34:36.241Z,13.95
2023-01-19T02:37:13.115Z,13.73
2023-01-19T02:39:42.609Z,15.48
2023-01-19T02:42:13.892Z,12.85
2023-01-19T02:44:41.410Z,15.15
2023-01-19T02:47:07.817Z,13.13
2023-01-19T02:49:34.239Z,16.08
2023-01-19T02:52:01.230Z,12.27
2023-01-19T02:54:30.291Z,14.95
2023-01-19T02:57:04.307Z,14.88
2023-01-19T02:59:45.829Z,13.63
2023-01-19T03:02:24.045Z,14.38
2023-01-19T03:04:56.496Z,11.80
2023-01-19T03:07:22.822Z,10.30
2023-01-19T03:09:55.497Z,12.35
2023-01-19T03:12:26.308Z,10.43
2023-01-19T03:14:57.290Z,10.40
2023-01-19T03:17:24.656Z,10.13
2023-01-19T03:19:52.789Z,9.90
2023-01-19T03:22:24.042Z,10.15
2023-01-19T03:24:51.377Z,8.20
2023-01-19T03:27:28.503Z,6.75
2023-01-19T03:30:00.800Z,7.32
2023-01-19T03:32:33.197Z,9.02
2023-01-19T03:35:00.976Z,6.80
2023-01-19T03:37:29.578Z,8.38
2023-01-19T03:39:56.443Z,9.40
2023-01-19T03:42:24.498Z,10.70
2023-01-19T03:44:52.438Z,8.57
2023-01-19T03:47:19.332Z,8.40
2023-01-19T03:49:46.902Z,10.60
2023-01-19T03:52:13.229Z,8.15
2023-01-19T03:54:40.868Z,10.18
2023-01-19T03:57:07.202Z,9.68
2023-01-19T03:59:33.542Z,8.27
2023-01-19T04:01:59.965Z,9.82
2023-01-19T04:04:26.375Z,9.68
2023-01-19T04:06:52.771Z,11.23
2023-01-19T04:09:20.070Z,7.25
2023-01-19T04:11:46.575Z,7.22
2023-01-19T04:14:13.633Z,10.90
2023-01-19T04:16:40.029Z,10.63
2023-01-19T04:19:06.464Z,7.60
2023-01-19T04:21:32.830Z,9.73
2023-01-19T04:23:59.741Z,9.35
2023-01-19T04:26:26.061Z,11.77
2023-01-19T04:28:52.456Z,11.02
2023-01-19T04:31:19.443Z,10.77
2023-01-19T04:33:45.871Z,7.78
2023-01-19T04:36:12.215Z,9.48
2023-01-19T04:38:38.781Z,8.82
2023-01-19T04:41:05.247Z,5.43
2023-01-19T04:43:31.555Z,8.65
2023-01-19T04:45:58.733Z,6.50
2023-01-19T04:48:25.099Z,5.35
2023-01-19T04:50:52.386Z,9.27
2023-01-19T04:53:18.815Z,9.32
2023-01-19T04:55:45.173Z,7.55
2023-01-19T04:58:11.515Z,8.90
2023-01-19T05:00:37.889Z,9.07
2023-01-19T05:03:05.319Z,7.65
2023-01-19T05:05:33.064Z,13.30
2023-01-19T05:07:59.384Z,9.98
2023-01-19T05:10:26.343Z,10.13
2023-01-19T05:12:52.724Z,11.77
2023-01-19T05:15:19.141Z,7.97
2023-01-19T05:17:45.433Z,9.48
2023-01-19T05:20:14.938Z,9.27
2023-01-19T05:22:42.651Z,12.65
2023-01-19T05:25:09.163Z,12.38
2023-01-19T05:27:36.069Z,13.10
2023-01-19T05:30:04.699Z,14.18
2023-01-19T05:32:31.019Z,11.40
2023-01-19T05:34:57.349Z,12.15
2023-01-19T05:37:23.762Z,10.98
2023-01-19T05:39:50.106Z,10.80
2023-01-19T05:42:17.133Z,12.85
2023-01-19T05:44:43.453Z,9.38
2023-01-19T05:47:09.793Z,9.90
2023-01-19T05:49:36.139Z,13.13
2023-01-19T05:52:02.606Z,12.23
2023-01-19T05:54:29.019Z,13.40
2023-01-19T05:56:55.317Z,11.57
2023-01-19T05:59:24.210Z,12.63
2023-01-19T06:01:53.706Z,13.15
2023-01-19T06:04:20.518Z,12.43
2023-01-19T06:06:50.216Z,11.35
2023-01-19T06:09:17.314Z,11.90
2023-01-19T06:11:44.351Z,10.70
2023-01-19T06:14:11.270Z,12.82
2023-01-19T06:16:37.724Z,14.50
2023-01-19T06:19:04.200Z,14.52
2023-01-19T06:21:30.612Z,13.73
2023-01-19T06:23:56.905Z,12.05
2023-01-19T06:26:23.209Z,14.07
2023-01-19T06:28:50.834Z,19.13
2023-01-19T06:31:17.191Z,10.93
2023-01-19T06:33:43.574Z,11.98
2023-01-19T06:36:10.039Z,14.63
2023-01-19T06:38:36.328Z,14.15
2023-01-19T06:41:03.330Z,12.82
2023-01-19T06:43:29.898Z,12.00
2023-01-19T06:45:56.405Z,15.57
2023-01-19T06:48:23.154Z,12.52
2023-01-19T06:50:49.647Z,10.77
2023-01-19T06:53:16.655Z,13.88
2023-01-19T06:55:46.092Z,11.93
2023-01-19T06:58:12.615Z,10.63
2023-01-19T07:00:39.071Z,10.65
2023-01-19T07:03:08.878Z,10.50
2023-01-19T07:05:36.152Z,14.15
2023-01-19T07:08:03.220Z,14.63
2023-01-19T07:11:26.264Z,15.35
2023-01-19T07:13:15.952Z,12.57
2023-01-19T07:15:43.383Z,12.63
2023-01-19T07:18:09.818Z,11.63
2023-01-19T07:20:36.605Z,12.35
2023-01-19T07:23:03.405Z,9.38
2023-01-19T07:25:30.513Z,9.93
2023-01-19T07:27:57.708Z,12.57
2023-01-19T07:30:24.008Z,9.55
2023-01-19T07:32:50.397Z,9.18
2023-01-19T07:35:16.746Z,8.60
2023-01-19T07:37:43.031Z,9.85
2023-01-19T07:40:09.674Z,10.18
2023-01-19T07:42:36.129Z,15.30
2023-01-19T07:45:02.444Z,10.90
2023-01-19T07:47:28.736Z,9.90
2023-01-19T07:49:55.029Z,9.98
2023-01-19T07:52:23.054Z,9.80
2023-01-19T07:54:50.997Z,8.88
2023-01-19T07:57:17.685Z,9.77
2023-01-19T07:59:44.114Z,9.32
2023-01-19T08:02:10.521Z,10.10
2023-01-19T08:04:36.938Z,8.07
2023-01-19T08:07:03.833Z,7.38
2023-01-19T08:09:30.161Z,9.50
2023-01-19T08:11:56.513Z,8.07
2023-01-19T08:14:22.996Z,10.52
2023-01-19T08:16:49.742Z,8.85
2023-01-19T08:19:16.103Z,10.07
2023-01-19T08:21:42.518Z,9.60
2023-01-19T08:24:17.965Z,10.40
2023-01-19T08:26:44.358Z,14.60
2023-01-19T08:29:10.709Z,13.40
2023-01-19T08:31:37.967Z,10.80
2023-01-19T08:34:04.438Z,10.15
2023-01-19T08:36:31.034Z,9.65
2023-01-19T08:38:57.501Z,14.18
2023-01-19T08:41:23.901Z,10.93
2023-01-19T08:43:50.320Z,7.53
2023-01-19T08:46:17.620Z,8.55
2023-01-19T08:48:45.250Z,11.55
2023-01-19T08:51:12.601Z,9.05
2023-01-19T08:53:38.926Z,11.38
2023-01-19T08:56:07.343Z,9.40
2023-01-19T08:58:33.707Z,8.52
2023-01-19T09:01:00.713Z,8.32
2023-01-19T09:03:28.351Z,8.48
2023-01-19T09:05:54.645Z,8.43
2023-01-19T09:08:20.962Z,16.15
2023-01-19T09:10:48.711Z,14.18
2023-01-19T09:13:15.564Z,12.55
2023-01-19T09:15:43.101Z,11.48
2023-01-19T09:18:13.468Z,9.70
2023-01-19T09:20:42.438Z,10.73
2023-01-19T09:23:13.071Z,10.13
2023-01-19T09:25:40.409Z,11.38
2023-01-19T09:28:07.792Z,12.18
2023-01-19T09:30:36.177Z,11.52
2023-01-19T09:33:06.388Z,8.68
2023-01-19T09:35:33.226Z,7.43
2023-01-19T09:38:00.416Z,10.88
2023-01-19T09:40:27.131Z,11.43
2023-01-19T09:42:56.979Z,8.57
2023-01-19T09:45:29.362Z,6.50
2023-01-19T09:47:56.389Z,9.02
2023-01-19T09:50:31.970Z,7.13
2023-01-19T09:53:07.752Z,8.68
2023-01-19T09:55:34.107Z,10.65
2023-01-19T09:58:00.696Z,9.73
2023-01-19T10:00:28.296Z,7.70
2023-01-19T10:03:23.972Z,8.20
2023-01-19T10:05:52.777Z,8.90
2023-01-19T10:08:22.159Z,7.80
2023-01-19T10:10:52.556Z,9.75
2023-01-19T10:13:19.277Z,10.70
2023-01-19T10:15:46.192Z,10.27
2023-01-19T10:18:13.062Z,15.38
2023-01-19T10:20:41.923Z,7.97
2023-01-19T10:23:19.778Z,11.15
2023-01-19T10:25:46.677Z,10.93
2023-01-19T10:28:13.624Z,9.98
2023-01-19T10:30:42.767Z,13.13
2023-01-19T10:33:11.599Z,8.50
2023-01-19T10:35:37.930Z,11.38
2023-01-19T10:38:05.012Z,9.05
2023-01-19T10:40:34.483Z,7.93
2023-01-19T10:43:01.223Z,7.97
2023-01-19T10:45:32.065Z,13.98
2023-01-19T10:47:59.815Z,11.20
2023-01-19T10:50:28.428Z,13.38
2023-01-19T10:52:56.133Z,11.90
2023-01-19T10:55:29.858Z,10.98
2023-01-19T10:57:57.058Z,7.40
2023-01-19T11:00:29.524Z,10.38
2023-01-19T11:02:55.918Z,8.40
2023-01-19T11:05:26.783Z,7.15
2023-01-19T11:07:53.306Z,10.93
2023-01-19T11:10:24.729Z,9.02
2023-01-19T11:12:53.803Z,8.20
2023-01-19T11:15:24.676Z,8.40
2023-01-19T11:17:51.911Z,7.63
2023-01-19T11:20:23.193Z,8.65
2023-01-19T11:23:03.680Z,7.47
2023-01-19T11:25:31.928Z,13.35
2023-01-19T11:27:58.370Z,13.00
2023-01-19T11:30:25.855Z,8.10
2023-01-19T11:32:52.484Z,10.90
2023-01-19T11:35:49.852Z,7.85
2023-01-19T11:38:18.241Z,9.40
2023-01-19T11:40:55.189Z,6.97
2023-01-19T11:43:23.011Z,7.43
2023-01-19T11:45:49.458Z,8.10
2023-01-19T11:48:21.298Z,9.15
2023-01-19T11:50:48.633Z,8.73
2023-01-19T11:53:24.295Z,7.22
2023-01-19T11:55:53.942Z,7.03
2023-01-19T11:58:20.547Z,10.18
2023-01-19T12:00:51.984Z,10.07
2023-01-19T12:03:32.426Z,9.50
2023-01-19T12:06:00.278Z,9.30
2023-01-19T12:08:33.385Z,8.73
2023-01-19T12:11:00.613Z,7.90
2023-01-19T12:13:27.410Z,7.68
2023-01-19T12:15:59.745Z,5.93
2023-01-19T12:18:28.872Z,8.52
2023-01-19T12:20:55.912Z,10.32
2023-01-19T12:23:32.820Z,7.47
2023-01-19T12:25:59.268Z,8.77
2023-01-19T12:28:31.676Z,8.05
2023-01-19T12:30:59.372Z,8.13
2023-01-19T12:33:25.783Z,7.60
2023-01-19T12:36:00.706Z,6.45
2023-01-19T12:38:30.503Z,8.18
2023-01-19T12:41:26.014Z,11.00
2023-01-19T12:44:10.918Z,8.07
2023-01-19T12:46:46.003Z,9.23
2023-01-19T12:49:12.405Z,11.07
2023-01-19T12:51:38.778Z,8.60
2023-01-19T12:54:07.865Z,10.15
2023-01-19T12:56:35.624Z,10.82
2023-01-19T12:59:02.728Z,12.57
2023-01-19T13:01:29.447Z,10.45
2023-01-19T13:04:00.340Z,10.60
2023-01-19T13:06:45.241Z,7.65
2023-01-19T13:09:30.006Z,7.43
2023-01-19T13:12:11.479Z,10.07
2023-01-19T13:14:38.053Z,11.82
2023-01-19T13:17:06.032Z,9.18
2023-01-19T13:19:36.236Z,7.85
2023-01-19T13:22:22.477Z,12.90
2023-01-19T13:25:05.050Z,9.98
2023-01-19T13:27:31.427Z,10.68
2023-01-19T13:29:58.042Z,7.40
2023-01-19T13:32:25.972Z,8.38
2023-01-19T13:34:54.673Z,8.55
2023-01-19T13:37:53.700Z,12.30
2023-01-19T13:40:24.865Z,9.65
2023-01-19T13:42:52.902Z,9.27
2023-01-19T13:45:22.245Z,9.98
2023-01-19T13:47:49.203Z,7.28
2023-01-19T13:50:29.142Z,8.02
2023-01-19T13:52:56.758Z,6.53
2023-01-19T13:55:23.864Z,4.47
2023-01-19T13:57:51.190Z,5.50
2023-01-19T14:00:17.612Z,4.10
2023-01-19T14:03:00.243Z,5.45
2023-01-19T14:05:31.011Z,6.57
2023-01-19T14:08:00.367Z,6.65
2023-01-19T14:10:27.209Z,5.38
2023-01-19T14:13:11.872Z,5.60
2023-01-19T14:15:40.616Z,6.47
2023-01-19T14:18:16.016Z,3.65
2023-01-19T14:20:57.763Z,3.45
2023-01-19T14:23:41.162Z,5.07
2023-01-19T14:26:26.361Z,6.10
2023-01-19T14:28:53.336Z,4.90
2023-01-19T14:31:33.376Z,3.58
2023-01-19T14:33:59.728Z,4.03
2023-01-19T14:36:29.115Z,4.13
2023-01-19T14:38:59.743Z,7.28
2023-01-19T14:41:37.702Z,5.65
2023-01-19T14:44:08.284Z,4.97
2023-01-19T14:46:34.725Z,3.83
2023-01-19T14:49:02.832Z,3.70
2023-01-19T14:51:30.372Z,5.38
2023-01-19T14:53:58.853Z,4.25
2023-01-19T14:56:26.661Z,4.25
2023-01-19T14:58:53.222Z,4.55
2023-01-19T15:01:19.701Z,3.45
2023-01-19T15:03:46.167Z,4.75
2023-01-19T15:06:16.866Z,3.85
2023-01-19T15:08:43.775Z,6.53
2023-01-19T15:11:11.577Z,4.47
2023-01-19T15:13:39.325Z,4.25
2023-01-19T15:16:06.712Z,3.63
2023-01-19T15:18:33.034Z,5.00
2023-01-19T15:21:02.851Z,4.57
2023-01-19T15:23:30.089Z,3.88
2023-01-19T15:26:00.430Z,2.20
2023-01-19T15:28:26.858Z,3.35
2023-01-19T15:30:57.549Z,2.35
2023-01-19T15:33:25.009Z,4.03
2023-01-19T15:35:51.723Z,3.65
2023-01-19T15:38:18.050Z,5.07
2023-01-19T15:40:44.776Z,4.65
2023-01-19T15:43:11.368Z,2.60
2023-01-19T15:45:47.913Z,3.90
2023-01-19T15:48:14.719Z,5.53
2023-01-19T15:50:42.053Z,5.82
2023-01-19T15:53:11.889Z,9.52
2023-01-19T15:55:38.234Z,5.38
2023-01-19T15:58:04.524Z,4.57
2023-01-19T16:00:31.725Z,4.25
2023-01-19T16:02:58.916Z,3.65
2023-01-19T16:05:33.972Z,4.07
2023-01-19T16:08:08.601Z,5.15
2023-01-19T16:10:35.145Z,3.67
2023-01-19T16:13:01.548Z,4.18
2023-01-19T16:15:27.970Z,2.88
2023-01-19T16:17:54.381Z,3.00
2023-01-19T16:20:20.697Z,4.22
2023-01-19T16:22:47.018Z,4.07
2023-01-19T16:25:13.440Z,9.65
2023-01-19T16:27:39.826Z,7.80
2023-01-19T16:30:06.549Z,7.30
2023-01-19T16:32:33.856Z,7.32
2023-01-19T16:35:00.232Z,6.38
2023-01-19T16:37:28.106Z,5.10
2023-01-19T16:39:54.528Z,5.60
2023-01-19T16:42:20.948Z,4.88
2023-01-19T16:44:47.342Z,7.93
2023-01-19T16:47:13.675Z,4.70
2023-01-19T16:49:40.046Z,4.43
2023-01-19T16:52:07.189Z,5.22
2023-01-19T16:54:34.285Z,4.65
2023-01-19T16:57:00.792Z,6.72
2023-01-19T16:59:29.038Z,10.77
2023-01-19T17:01:55.908Z,9.40
2023-01-19T17:04:22.641Z,5.43
2023-01-19T17:06:49.895Z,4.30
2023-01-19T17:09:17.205Z,3.63
2023-01-19T17:11:43.612Z,2.95
2023-01-19T17:14:15.143Z,3.22
2023-01-19T17:16:42.075Z,3.38
2023-01-19T17:19:12.519Z,2.72
2023-01-19T17:21:38.857Z,2.40
2023-01-19T17:24:05.437Z,2.42
2023-01-19T17:26:31.948Z,1.95
2023-01-19T17:28:59.582Z,1.98
2023-01-19T17:31:26.415Z,2.38
2023-01-19T17:33:52.819Z,1.67
2023-01-19T17:36:22.288Z,1.88
2023-01-19T17:38:49.416Z,4.10
2023-01-19T17:41:16.702Z,5.93
2023-01-19T17:43:43.404Z,9.27
2023-01-19T17:46:10.010Z,9.30
2023-01-19T17:48:36.314Z,10.05
2023-01-19T17:51:06.514Z,7.88
2023-01-19T17:53:33.350Z,9.73
2023-01-19T17:56:10.458Z,8.05
2023-01-19T17:58:37.129Z,7.88
2023-01-19T18:01:15.862Z,7.63
2023-01-19T18:03:42.471Z,7.90
2023-01-19T18:06:09.072Z,6.40
2023-01-19T18:08:37.948Z,6.00
2023-01-19T18:11:04.446Z,5.80
2023-01-19T18:13:30.844Z,7.38
2023-01-19T18:16:01.087Z,6.30
2023-01-19T18:18:27.670Z,8.93
2023-01-19T18:20:57.329Z,6.05
2023-01-19T18:23:23.781Z,6.40
2023-01-19T18:25:50.484Z,6.88
2023-01-19T18:28:16.898Z,6.07
2023-01-19T18:30:43.332Z,4.60
2023-01-19T18:33:09.757Z,5.03
2023-01-19T18:35:38.256Z,5.65
2023-01-19T18:38:04.730Z,6.00
2023-01-19T18:40:31.172Z,7.00
2023-01-19T18:42:57.532Z,6.68
2023-01-19T18:45:23.848Z,4.25
2023-01-19T18:47:50.287Z,7.68
2023-01-19T18:50:17.938Z,7.22
2023-01-19T18:52:46.249Z,6.10
2023-01-19T18:55:12.599Z,3.70
2023-01-19T18:57:38.960Z,5.15
2023-01-19T19:00:06.062Z,5.15
2023-01-19T19:02:32.729Z,5.53
2023-01-19T19:04:59.105Z,5.18
2023-01-19T19:07:25.471Z,4.75
2023-01-19T19:09:51.802Z,3.35
2023-01-19T19:12:20.572Z,5.05
2023-01-19T19:14:46.901Z,3.15
2023-01-19T19:17:13.258Z,3.92
2023-01-19T19:19:39.557Z,5.05
2023-01-19T19:22:05.933Z,14.40
2023-01-19T19:24:32.303Z,15.45
2023-01-19T19:26:58.637Z,11.15
2023-01-19T19:29:24.936Z,8.55
2023-01-19T19:31:51.279Z,9.90
2023-01-19T19:34:17.698Z,6.50
2023-01-19T19:36:44.183Z,7.28
2023-01-19T19:39:10.540Z,5.30
2023-01-19T19:41:38.686Z,6.15
2023-01-19T19:44:05.076Z,5.32
2023-01-19T19:46:31.557Z,3.92
2023-01-19T19:48:57.964Z,4.65
2023-01-19T19:51:28.068Z,4.32
2023-01-19T19:53:55.590Z,4.53
2023-01-19T19:56:22.950Z,5.35
2023-01-19T19:58:50.041Z,5.40
2023-01-19T20:01:21.009Z,5.63
2023-01-19T20:03:47.519Z,5.43
2023-01-19T20:06:16.268Z,4.85
2023-01-19T20:08:42.647Z,5.25
2023-01-19T20:11:13.419Z,5.20
2023-01-19T20:13:40.834Z,4.00
2023-01-19T20:16:10.110Z,7.53
2023-01-19T20:18:40.411Z,11.40
2023-01-19T20:21:12.786Z,9.80
2023-01-19T20:23:39.265Z,11.48
2023-01-19T20:26:07.287Z,8.50
2023-01-19T20:28:34.200Z,6.45
2023-01-19T20:31:11.391Z,5.60
2023-01-19T20:33:37.861Z,3.63
2023-01-19T20:36:04.575Z,3.58
2023-01-19T20:38:30.973Z,2.30
2023-01-19T20:40:57.264Z,2.33
2023-01-19T20:43:23.667Z,1.13
2023-01-19T20:45:51.167Z,1.00
2023-01-19T20:48:17.590Z,1.42
2023-01-19T20:50:43.971Z,1.42
2023-01-19T20:53:10.358Z,0.82
2023-01-19T20:55:37.295Z,8.05
2023-01-19T20:58:03.805Z,6.75
2023-01-19T21:00:30.140Z,4.55
2023-01-19T21:02:56.786Z,7.85
2023-01-19T21:05:23.504Z,3.35
2023-01-19T21:07:50.043Z,3.97
2023-01-19T21:10:17.446Z,4.43
2023-01-19T21:12:44.496Z,5.07
2023-01-19T21:15:11.429Z,6.80
2023-01-19T21:17:37.869Z,6.45
2023-01-19T21:20:04.495Z,7.05
2023-01-19T21:22:30.817Z,6.05
2023-01-19T21:24:57.112Z,5.50
2023-01-19T21:27:23.503Z,4.82
2023-01-19T21:29:49.855Z,5.40
2023-01-19T21:32:16.209Z,2.22
2023-01-19T21:34:43.986Z,2.58
2023-01-19T21:37:10.349Z,2.22
2023-01-19T21:39:36.670Z,5.78
2023-01-19T21:42:03.122Z,3.80
2023-01-19T21:44:29.466Z,4.70
2023-01-19T21:46:55.892Z,4.93
2023-01-19T21:49:22.253Z,4.93
2023-01-19T21:51:50.516Z,4.13
2023-01-19T21:54:17.286Z,4.30
2023-01-19T21:56:43.726Z,2.67
2023-01-19T21:59:12.532Z,7.55
2023-01-19T22:01:38.915Z,5.75
2023-01-19T22:04:05.467Z,3.55
2023-01-19T22:06:31.873Z,2.38
2023-01-19T22:08:58.491Z,2.00
2023-01-19T22:11:24.933Z,1.52
2023-01-19T22:13:51.572Z,2.10
2023-01-19T22:16:19.185Z,1.25
2023-01-19T22:18:49.073Z,1.85
2023-01-19T22:21:16.776Z,1.13
2023-01-19T22:23:43.395Z,1.30
2023-01-19T22:26:10.882Z,1.10
2023-01-19T22:28:37.638Z,1.65
2023-01-19T22:31:08.065Z,1.25
2023-01-19T22:33:34.932Z,1.10
2023-01-19T22:36:13.478Z,0.98
2023-01-19T22:38:40.278Z,1.10
2023-01-19T22:41:17.591Z,1.20
2023-01-19T22:43:44.263Z,0.63
2023-01-19T22:46:10.687Z,0.68
2023-01-19T22:48:37.254Z,0.57
2023-01-19T22:51:03.620Z,0.50
2023-01-19T22:53:32.996Z,1.33
2023-01-19T22:55:59.473Z,1.40
2023-01-19T22:58:25.892Z,1.88
2023-01-19T23:00:52.252Z,1.48
2023-01-19T23:03:18.681Z,0.70
2023-01-19T23:05:45.049Z,4.10
2023-01-19T23:08:11.475Z,5.43
2023-01-19T23:10:38.417Z,3.67
2023-01-19T23:13:04.710Z,2.78
2023-01-19T23:15:32.760Z,1.67
2023-01-19T23:17:59.188Z,1.77
2023-01-19T23:20:25.719Z,1.15
2023-01-19T23:22:52.062Z,2.10
2023-01-19T23:25:18.380Z,1.55
2023-01-19T23:27:44.669Z,1.38
2023-01-19T23:30:11.215Z,2.20
2023-01-19T23:32:38.012Z,1.77
2023-01-19T23:35:04.381Z,1.30
2023-01-19T23:37:30.693Z,1.92
2023-01-19T23:39:57.032Z,1.45
2023-01-19T23:42:23.354Z,1.15
2023-01-19T23:44:49.712Z,2.13
2023-01-19T23:47:16.078Z,2.42
2023-01-19T23:49:42.466Z,1.42
2023-01-19T23:52:08.907Z,4.22
2023-01-19T23:54:35.394Z,5.38
2023-01-19T23:57:01.803Z,5.70
2023-01-19T23:59:28.111Z,8.93
